PWSweather.com
Personal Weather Stations
Station Observations
BREEJEDURP
'sGravenzande, WestlandNL

'sGravenzandeWestlandNL

Lat: 52.00095260000001, Lon: 4.174256600000035

Elevation: 3

Station Type: Davis Vantage Pro2 Plus

www.breejedurp.nl

High Low Average
Temperature 46.8°F8.2°C 37.4°F3.0°C 41.6°F5.3°C
Dew Point 45.4°F7.4°C 35.9°F2.2°C 39.6°F4.2°C
Winds 18.0 mph 29.0 kmh 4.0 mph 6.4 kmh 10.0 mph S16.1 kmh S
Wind Gusts 29.0 mph46.7 kmh 5.0 mph8.0 kmh 15.0 mph24.1 kmh
Humidity 96% 88% 93%
Pressure 30.01 in1016.3 mb 29.21 in989.2 mb -
Precipitation 0.62 in15.7 mm - -
Hour Temp Dew Point Humidity Winds Wind Gusts Pressure Precip Precip Rate Daily Precip Total
12:04 AM 38.3°F3.5°C 35.9°F2.2°C 91% 7.0 mph SSW11.3 kmh SSW 11.0 mph17.7 kmh 30.01 in1016.3 mb 0.00 in0.0 mm 0.00 in0.0 mm 0.00 in0.0 mm
12:09 AM 38.5°F3.6°C 36.1°F2.3°C 91% 5.0 mph S8.0 kmh S 10.0 mph16.1 kmh 30.00 in1015.9 mb 0.00 in0.0 mm 0.00 in0.0 mm 0.00 in0.0 mm
12:14 AM 38.7°F3.7°C 36.3°F2.4°C 91% 6.0 mph S9.7 kmh S 10.0 mph16.1 kmh 30.00 in1015.9 mb 0.00 in0.0 mm 0.00 in0.0 mm 0.00 in0.0 mm
12:19 AM 38.8°F3.8°C 36.2°F2.3°C 90% 6.0 mph SSE9.7 kmh SSE 7.0 mph11.3 kmh 30.00 in1015.9 mb 0.00 in0.0 mm 0.00 in0.0 mm 0.00 in0.0 mm
12:24 AM 38.8°F3.8°C 36.2°F2.3°C 90% 8.0 mph SSW12.9 kmh SSW 11.0 mph17.7 kmh 30.00 in1015.9 mb 0.00 in0.0 mm 0.00 in0.0 mm 0.00 in0.0 mm
12:29 AM 38.8°F3.8°C 36.2°F2.3°C 90% 9.0 mph SSW14.5 kmh SSW 13.0 mph20.9 kmh 30.00 in1015.9 mb 0.00 in0.0 mm 0.00 in0.0 mm 0.00 in0.0 mm
12:34 AM 39.0°F3.9°C 36.3°F2.4°C 90% 7.0 mph SSW11.3 kmh SSW 10.0 mph16.1 kmh 29.99 in1015.6 mb 0.00 in0.0 mm 0.00 in0.0 mm 0.00 in0.0 mm
12:39 AM 39.0°F3.9°C 36.3°F2.4°C 90% 6.0 mph S9.7 kmh S 10.0 mph16.1 kmh 29.99 in1015.6 mb 0.00 in0.0 mm 0.00 in0.0 mm 0.00 in0.0 mm
12:44 AM 39.0°F3.9°C 36.3°F2.4°C 90% 8.0 mph S12.9 kmh S 11.0 mph17.7 kmh 29.99 in1015.6 mb 0.00 in0.0 mm 0.00 in0.0 mm 0.00 in0.0 mm
12:49 AM 39.0°F3.9°C 36.1°F2.3°C 89% 7.0 mph S11.3 kmh S 10.0 mph16.1 kmh 29.98 in1015.2 mb 0.00 in0.0 mm 0.00 in0.0 mm 0.00 in0.0 mm
12:54 AM 39.2°F4.0°C 36.2°F2.3°C 89% 7.0 mph S11.3 kmh S 9.0 mph14.5 kmh 29.98 in1015.2 mb 0.00 in0.0 mm 0.00 in0.0 mm 0.00 in0.0 mm
12:59 AM 39.0°F3.9°C 36.3°F2.4°C 90% 9.0 mph S14.5 kmh S 13.0 mph20.9 kmh 29.98 in1015.2 mb 0.00 in0.0 mm 0.00 in0.0 mm 0.00 in0.0 mm
01:04 AM 39.2°F4.0°C 36.2°F2.3°C 89% 6.0 mph S9.7 kmh S 9.0 mph14.5 kmh 29.98 in1015.2 mb 0.00 in0.0 mm 0.00 in0.0 mm 0.00 in0.0 mm
01:09 AM 39.4°F4.1°C 36.4°F2.4°C 89% 8.0 mph S12.9 kmh S 12.0 mph19.3 kmh 29.98 in1015.2 mb 0.00 in0.0 mm 0.00 in0.0 mm 0.00 in0.0 mm
01:14 AM 39.4°F4.1°C 36.4°F2.4°C 89% 6.0 mph SSW9.7 kmh SSW 9.0 mph14.5 kmh 29.98 in1015.2 mb 0.00 in0.0 mm 0.00 in0.0 mm 0.00 in0.0 mm
01:19 AM 39.6°F4.2°C 36.6°F2.6°C 89% 6.0 mph SSW9.7 kmh SSW 10.0 mph16.1 kmh 29.97 in1014.9 mb 0.00 in0.0 mm 0.00 in0.0 mm 0.00 in0.0 mm
01:24 AM 39.6°F4.2°C 36.6°F2.6°C 89% 6.0 mph SSW9.7 kmh SSW 9.0 mph14.5 kmh 29.97 in1014.9 mb 0.00 in0.0 mm 0.00 in0.0 mm 0.00 in0.0 mm
01:29 AM 39.6°F4.2°C 36.6°F2.6°C 89% 5.0 mph S8.0 kmh S 7.0 mph11.3 kmh 29.97 in1014.9 mb 0.00 in0.0 mm 0.00 in0.0 mm 0.00 in0.0 mm
01:34 AM 39.6°F4.2°C 36.9°F2.7°C 90% 5.0 mph SSW8.0 kmh SSW 7.0 mph11.3 kmh 29.97 in1014.9 mb 0.00 in0.0 mm 0.00 in0.0 mm 0.00 in0.0 mm
01:39 AM 39.6°F4.2°C 36.9°F2.7°C 90% 6.0 mph SSW9.7 kmh SSW 10.0 mph16.1 kmh 29.97 in1014.9 mb 0.00 in0.0 mm 0.00 in0.0 mm 0.00 in0.0 mm
01:44 AM 39.6°F4.2°C 36.9°F2.7°C 90% 6.0 mph S9.7 kmh S 9.0 mph14.5 kmh 29.96 in1014.6 mb 0.00 in0.0 mm 0.00 in0.0 mm 0.00 in0.0 mm
01:49 AM 39.4°F4.1°C 36.7°F2.6°C 90% 12.0 mph S19.3 kmh S 16.0 mph25.7 kmh 29.96 in1014.6 mb 0.00 in0.0 mm 0.00 in0.0 mm 0.00 in0.0 mm
01:54 AM 39.4°F4.1°C 36.4°F2.4°C 89% 6.0 mph SSE9.7 kmh SSE 10.0 mph16.1 kmh 29.96 in1014.6 mb 0.00 in0.0 mm 0.00 in0.0 mm 0.00 in0.0 mm
01:59 AM 39.4°F4.1°C 36.7°F2.6°C 90% 9.0 mph S14.5 kmh S 15.0 mph24.1 kmh 29.96 in1014.6 mb 0.00 in0.0 mm 0.00 in0.0 mm 0.00 in0.0 mm
02:04 AM 39.0°F3.9°C 36.3°F2.4°C 90% 8.0 mph S12.9 kmh S 11.0 mph17.7 kmh 29.95 in1014.2 mb 0.00 in0.0 mm 0.00 in0.0 mm 0.00 in0.0 mm
02:09 AM 39.0°F3.9°C 36.3°F2.4°C 90% 7.0 mph S11.3 kmh S 11.0 mph17.7 kmh 29.96 in1014.6 mb 0.00 in0.0 mm 0.00 in0.0 mm 0.00 in0.0 mm
02:14 AM 39.0°F3.9°C 36.3°F2.4°C 90% 7.0 mph SSW11.3 kmh SSW 15.0 mph24.1 kmh 29.96 in1014.6 mb 0.00 in0.0 mm 0.00 in0.0 mm 0.00 in0.0 mm
02:19 AM 39.0°F3.9°C 36.3°F2.4°C 90% 10.0 mph S16.1 kmh S 14.0 mph22.5 kmh 29.96 in1014.6 mb 0.00 in0.0 mm 0.00 in0.0 mm 0.00 in0.0 mm
02:24 AM 39.0°F3.9°C 36.3°F2.4°C 90% 7.0 mph SSW11.3 kmh SSW 12.0 mph19.3 kmh 29.96 in1014.6 mb 0.00 in0.0 mm 0.00 in0.0 mm 0.00 in0.0 mm
02:29 AM 39.0°F3.9°C 36.3°F2.4°C 90% 6.0 mph SSW9.7 kmh SSW 9.0 mph14.5 kmh 29.95 in1014.2 mb 0.00 in0.0 mm 0.00 in0.0 mm 0.00 in0.0 mm
02:34 AM 39.0°F3.9°C 36.3°F2.4°C 90% 8.0 mph SSW12.9 kmh SSW 11.0 mph17.7 kmh 29.94 in1013.9 mb 0.00 in0.0 mm 0.00 in0.0 mm 0.00 in0.0 mm
02:39 AM 39.0°F3.9°C 36.3°F2.4°C 90% 9.0 mph SSW14.5 kmh SSW 14.0 mph22.5 kmh 29.94 in1013.9 mb 0.00 in0.0 mm 0.00 in0.0 mm 0.00 in0.0 mm
02:44 AM 39.0°F3.9°C 36.3°F2.4°C 90% 8.0 mph S12.9 kmh S 12.0 mph19.3 kmh 29.94 in1013.9 mb 0.00 in0.0 mm 0.00 in0.0 mm 0.00 in0.0 mm
02:49 AM 39.0°F3.9°C 36.3°F2.4°C 90% 7.0 mph SW11.3 kmh SW 16.0 mph25.7 kmh 29.93 in1013.5 mb 0.00 in0.0 mm 0.00 in0.0 mm 0.00 in0.0 mm
02:54 AM 38.8°F3.8°C 36.2°F2.3°C 90% 7.0 mph S11.3 kmh S 13.0 mph20.9 kmh 29.93 in1013.5 mb 0.00 in0.0 mm 0.00 in0.0 mm 0.00 in0.0 mm
02:59 AM 38.8°F3.8°C 36.2°F2.3°C 90% 5.0 mph SSE8.0 kmh SSE 6.0 mph9.7 kmh 29.93 in1013.5 mb 0.00 in0.0 mm 0.00 in0.0 mm 0.00 in0.0 mm
03:04 AM 38.8°F3.8°C 36.2°F2.3°C 90% 11.0 mph S17.7 kmh S 14.0 mph22.5 kmh 29.92 in1013.2 mb 0.00 in0.0 mm 0.00 in0.0 mm 0.00 in0.0 mm
03:09 AM 38.8°F3.8°C 36.2°F2.3°C 90% 6.0 mph SE9.7 kmh SE 9.0 mph14.5 kmh 29.92 in1013.2 mb 0.00 in0.0 mm 0.00 in0.0 mm 0.00 in0.0 mm
03:14 AM 38.8°F3.8°C 36.2°F2.3°C 90% 4.0 mph SSE6.4 kmh SSE 5.0 mph8.0 kmh 29.92 in1013.2 mb 0.00 in0.0 mm 0.00 in0.0 mm 0.00 in0.0 mm
03:19 AM 38.8°F3.8°C 36.2°F2.3°C 90% 5.0 mph SE8.0 kmh SE 11.0 mph17.7 kmh 29.92 in1013.2 mb 0.00 in0.0 mm 0.00 in0.0 mm 0.00 in0.0 mm
03:24 AM 38.7°F3.7°C 36.0°F2.2°C 90% 6.0 mph SSE9.7 kmh SSE 9.0 mph14.5 kmh 29.91 in1012.9 mb 0.00 in0.0 mm 0.00 in0.0 mm 0.00 in0.0 mm
03:29 AM 38.7°F3.7°C 36.3°F2.4°C 91% 6.0 mph SSE9.7 kmh SSE 11.0 mph17.7 kmh 29.91 in1012.9 mb 0.00 in0.0 mm 0.00 in0.0 mm 0.00 in0.0 mm
03:34 AM 38.7°F3.7°C 36.3°F2.4°C 91% 7.0 mph S11.3 kmh S 10.0 mph16.1 kmh 29.91 in1012.9 mb 0.00 in0.0 mm 0.00 in0.0 mm 0.00 in0.0 mm
03:39 AM 38.7°F3.7°C 36.3°F2.4°C 91% 6.0 mph SE9.7 kmh SE 8.0 mph12.9 kmh 29.90 in1012.5 mb 0.00 in0.0 mm 0.00 in0.0 mm 0.00 in0.0 mm
03:44 AM 38.7°F3.7°C 36.3°F2.4°C 91% 6.0 mph S9.7 kmh S 8.0 mph12.9 kmh 29.91 in1012.9 mb 0.00 in0.0 mm 0.00 in0.0 mm 0.00 in0.0 mm
03:49 AM 38.7°F3.7°C 36.3°F2.4°C 91% 6.0 mph SSE9.7 kmh SSE 10.0 mph16.1 kmh 29.90 in1012.5 mb 0.00 in0.0 mm 0.00 in0.0 mm 0.00 in0.0 mm
03:54 AM 38.7°F3.7°C 36.3°F2.4°C 91% 8.0 mph S12.9 kmh S 12.0 mph19.3 kmh 29.90 in1012.5 mb 0.00 in0.0 mm 0.00 in0.0 mm 0.00 in0.0 mm
03:59 AM 38.8°F3.8°C 36.4°F2.4°C 91% 4.0 mph SSW6.4 kmh SSW 7.0 mph11.3 kmh 29.90 in1012.5 mb 0.00 in0.0 mm 0.00 in0.0 mm 0.00 in0.0 mm
04:04 AM 38.8°F3.8°C 36.4°F2.4°C 91% 7.0 mph S11.3 kmh S 12.0 mph19.3 kmh 29.90 in1012.5 mb 0.00 in0.0 mm 0.00 in0.0 mm 0.00 in0.0 mm
04:09 AM 38.8°F3.8°C 36.4°F2.4°C 91% 5.0 mph SSE8.0 kmh SSE 10.0 mph16.1 kmh 29.90 in1012.5 mb 0.00 in0.0 mm 0.00 in0.0 mm 0.00 in0.0 mm
04:14 AM 38.8°F3.8°C 36.4°F2.4°C 91% 8.0 mph S12.9 kmh S 11.0 mph17.7 kmh 29.89 in1012.2 mb 0.00 in0.0 mm 0.00 in0.0 mm 0.00 in0.0 mm
04:19 AM 39.0°F3.9°C 36.6°F2.6°C 91% 5.0 mph SSE8.0 kmh SSE 7.0 mph11.3 kmh 29.89 in1012.2 mb 0.00 in0.0 mm 0.00 in0.0 mm 0.00 in0.0 mm
04:24 AM 39.0°F3.9°C 36.6°F2.6°C 91% 7.0 mph S11.3 kmh S 11.0 mph17.7 kmh 29.89 in1012.2 mb 0.00 in0.0 mm 0.00 in0.0 mm 0.00 in0.0 mm
04:29 AM 39.0°F3.9°C 36.6°F2.6°C 91% 7.0 mph S11.3 kmh S 10.0 mph16.1 kmh 29.88 in1011.9 mb 0.00 in0.0 mm 0.00 in0.0 mm 0.00 in0.0 mm
04:34 AM 39.2°F4.0°C 36.5°F2.5°C 90% 6.0 mph SSW9.7 kmh SSW 8.0 mph12.9 kmh 29.88 in1011.9 mb 0.00 in0.0 mm 0.00 in0.0 mm 0.00 in0.0 mm
04:39 AM 39.2°F4.0°C 36.5°F2.5°C 90% 7.0 mph SE11.3 kmh SE 11.0 mph17.7 kmh 29.88 in1011.9 mb 0.00 in0.0 mm 0.00 in0.0 mm 0.00 in0.0 mm
04:43 AM 39.2°F4.0°C 36.5°F2.5°C 90% 6.0 mph SSE9.7 kmh SSE 8.0 mph12.9 kmh 29.87 in1011.5 mb 0.00 in0.0 mm 0.00 in0.0 mm 0.00 in0.0 mm
05:00 AM 39.2°F4.0°C 36.5°F2.5°C 90% 6.0 mph SSE9.7 kmh SSE 8.0 mph12.9 kmh 29.87 in1011.5 mb 0.00 in0.0 mm 0.00 in0.0 mm 0.00 in0.0 mm
05:05 AM 39.2°F4.0°C 36.5°F2.5°C 90% 6.0 mph SSE9.7 kmh SSE 8.0 mph12.9 kmh 29.87 in1011.5 mb 0.00 in0.0 mm 0.00 in0.0 mm 0.00 in0.0 mm
05:10 AM 39.2°F4.0°C 36.5°F2.5°C 90% 6.0 mph SSE9.7 kmh SSE 8.0 mph12.9 kmh 29.87 in1011.5 mb 0.00 in0.0 mm 0.00 in0.0 mm 0.00 in0.0 mm
05:15 AM 39.2°F4.0°C 36.5°F2.5°C 90% 6.0 mph SSE9.7 kmh SSE 8.0 mph12.9 kmh 29.87 in1011.5 mb 0.00 in0.0 mm 0.00 in0.0 mm 0.00 in0.0 mm
05:20 AM 39.2°F4.0°C 36.5°F2.5°C 90% 6.0 mph SSE9.7 kmh SSE 8.0 mph12.9 kmh 29.87 in1011.5 mb 0.00 in0.0 mm 0.00 in0.0 mm 0.00 in0.0 mm
05:25 AM 39.2°F4.0°C 36.5°F2.5°C 90% 6.0 mph SSE9.7 kmh SSE 8.0 mph12.9 kmh 29.87 in1011.5 mb 0.00 in0.0 mm 0.00 in0.0 mm 0.00 in0.0 mm
05:30 AM 39.2°F4.0°C 36.5°F2.5°C 90% 6.0 mph SSE9.7 kmh SSE 8.0 mph12.9 kmh 29.87 in1011.5 mb 0.00 in0.0 mm 0.00 in0.0 mm 0.00 in0.0 mm
05:35 AM 39.2°F4.0°C 36.5°F2.5°C 90% 6.0 mph SSE9.7 kmh SSE 8.0 mph12.9 kmh 29.87 in1011.5 mb 0.00 in0.0 mm 0.00 in0.0 mm 0.00 in0.0 mm
05:40 AM 39.2°F4.0°C 36.5°F2.5°C 90% 6.0 mph SSE9.7 kmh SSE 8.0 mph12.9 kmh 29.87 in1011.5 mb 0.00 in0.0 mm 0.00 in0.0 mm 0.00 in0.0 mm
05:45 AM 39.2°F4.0°C 36.5°F2.5°C 90% 6.0 mph SSE9.7 kmh SSE 8.0 mph12.9 kmh 29.87 in1011.5 mb 0.00 in0.0 mm 0.00 in0.0 mm 0.00 in0.0 mm
05:50 AM 39.2°F4.0°C 36.5°F2.5°C 90% 6.0 mph SSE9.7 kmh SSE 8.0 mph12.9 kmh 29.87 in1011.5 mb 0.00 in0.0 mm 0.00 in0.0 mm 0.00 in0.0 mm
05:55 AM 39.2°F4.0°C 36.5°F2.5°C 90% 6.0 mph SSE9.7 kmh SSE 8.0 mph12.9 kmh 29.87 in1011.5 mb 0.00 in0.0 mm 0.00 in0.0 mm 0.00 in0.0 mm
06:00 AM 39.2°F4.0°C 36.5°F2.5°C 90% 6.0 mph SSE9.7 kmh SSE 8.0 mph12.9 kmh 29.87 in1011.5 mb 0.00 in0.0 mm 0.00 in0.0 mm 0.00 in0.0 mm
06:05 AM 39.2°F4.0°C 36.5°F2.5°C 90% 6.0 mph SSE9.7 kmh SSE 8.0 mph12.9 kmh 29.87 in1011.5 mb 0.00 in0.0 mm 0.00 in0.0 mm 0.00 in0.0 mm
06:10 AM 39.2°F4.0°C 36.5°F2.5°C 90% 6.0 mph SSE9.7 kmh SSE 8.0 mph12.9 kmh 29.87 in1011.5 mb 0.00 in0.0 mm 0.00 in0.0 mm 0.00 in0.0 mm
06:15 AM 39.2°F4.0°C 36.5°F2.5°C 90% 6.0 mph SSE9.7 kmh SSE 8.0 mph12.9 kmh 29.87 in1011.5 mb 0.00 in0.0 mm 0.00 in0.0 mm 0.00 in0.0 mm
06:20 AM 39.2°F4.0°C 36.5°F2.5°C 90% 6.0 mph SSE9.7 kmh SSE 8.0 mph12.9 kmh 29.87 in1011.5 mb 0.00 in0.0 mm 0.00 in0.0 mm 0.00 in0.0 mm
06:25 AM 39.2°F4.0°C 36.5°F2.5°C 90% 6.0 mph SSE9.7 kmh SSE 8.0 mph12.9 kmh 29.87 in1011.5 mb 0.00 in0.0 mm 0.00 in0.0 mm 0.00 in0.0 mm
06:30 AM 39.2°F4.0°C 36.5°F2.5°C 90% 6.0 mph SSE9.7 kmh SSE 8.0 mph12.9 kmh 29.87 in1011.5 mb 0.00 in0.0 mm 0.00 in0.0 mm 0.00 in0.0 mm
06:35 AM 39.2°F4.0°C 36.5°F2.5°C 90% 6.0 mph SSE9.7 kmh SSE 8.0 mph12.9 kmh 29.87 in1011.5 mb 0.00 in0.0 mm 0.00 in0.0 mm 0.00 in0.0 mm
06:40 AM 39.2°F4.0°C 36.5°F2.5°C 90% 6.0 mph SSE9.7 kmh SSE 8.0 mph12.9 kmh 29.87 in1011.5 mb 0.00 in0.0 mm 0.00 in0.0 mm 0.00 in0.0 mm
06:45 AM 39.2°F4.0°C 36.5°F2.5°C 90% 6.0 mph SSE9.7 kmh SSE 8.0 mph12.9 kmh 29.87 in1011.5 mb 0.00 in0.0 mm 0.00 in0.0 mm 0.00 in0.0 mm
06:50 AM 39.2°F4.0°C 36.5°F2.5°C 90% 6.0 mph SSE9.7 kmh SSE 8.0 mph12.9 kmh 29.87 in1011.5 mb 0.00 in0.0 mm 0.00 in0.0 mm 0.00 in0.0 mm
06:55 AM 39.2°F4.0°C 36.5°F2.5°C 90% 6.0 mph SSE9.7 kmh SSE 8.0 mph12.9 kmh 29.87 in1011.5 mb 0.00 in0.0 mm 0.00 in0.0 mm 0.00 in0.0 mm
07:00 AM 39.2°F4.0°C 36.5°F2.5°C 90% 6.0 mph SSE9.7 kmh SSE 8.0 mph12.9 kmh 29.87 in1011.5 mb 0.00 in0.0 mm 0.00 in0.0 mm 0.00 in0.0 mm
07:05 AM 39.2°F4.0°C 36.5°F2.5°C 90% 6.0 mph SSE9.7 kmh SSE 8.0 mph12.9 kmh 29.87 in1011.5 mb 0.00 in0.0 mm 0.00 in0.0 mm 0.00 in0.0 mm
07:10 AM 39.2°F4.0°C 36.5°F2.5°C 90% 6.0 mph SSE9.7 kmh SSE 8.0 mph12.9 kmh 29.87 in1011.5 mb 0.00 in0.0 mm 0.00 in0.0 mm 0.00 in0.0 mm
07:14 AM 38.5°F3.6°C 36.9°F2.7°C 94% 9.0 mph S14.5 kmh S 18.0 mph29.0 kmh 29.80 in1009.1 mb 0.00 in0.0 mm 0.00 in0.0 mm 0.00 in0.0 mm
07:19 AM 38.3°F3.5°C 36.7°F2.6°C 94% 8.0 mph S12.9 kmh S 11.0 mph17.7 kmh 29.79 in1008.8 mb 0.00 in0.0 mm 0.00 in0.0 mm 0.00 in0.0 mm
07:24 AM 38.1°F3.4°C 36.8°F2.7°C 95% 9.0 mph SE14.5 kmh SE 11.0 mph17.7 kmh 29.79 in1008.8 mb 0.00 in0.0 mm 0.00 in0.0 mm 0.00 in0.0 mm
07:29 AM 37.9°F3.3°C 36.4°F2.4°C 94% 12.0 mph S19.3 kmh S 18.0 mph29.0 kmh 29.79 in1008.8 mb 0.00 in0.0 mm 0.00 in0.0 mm 0.00 in0.0 mm
07:34 AM 37.9°F3.3°C 36.6°F2.6°C 95% 10.0 mph SE16.1 kmh SE 16.0 mph25.7 kmh 29.78 in1008.5 mb 0.00 in0.0 mm 0.00 in0.0 mm 0.00 in0.0 mm
07:39 AM 37.8°F3.2°C 36.5°F2.5°C 95% 11.0 mph SE17.7 kmh SE 19.0 mph30.6 kmh 29.78 in1008.5 mb 0.00 in0.0 mm 0.00 in0.0 mm 0.00 in0.0 mm
07:44 AM 37.6°F3.1°C 36.3°F2.4°C 95% 12.0 mph SE19.3 kmh SE 16.0 mph25.7 kmh 29.78 in1008.5 mb 0.00 in0.0 mm 0.00 in0.0 mm 0.00 in0.0 mm
07:49 AM 37.4°F3.0°C 36.1°F2.3°C 95% 9.0 mph SE14.5 kmh SE 13.0 mph20.9 kmh 29.77 in1008.1 mb 0.00 in0.0 mm 0.00 in0.0 mm 0.00 in0.0 mm
07:54 AM 37.6°F3.1°C 36.3°F2.4°C 95% 13.0 mph SE20.9 kmh SE 17.0 mph27.4 kmh 29.77 in1008.1 mb 0.00 in0.0 mm 0.00 in0.0 mm 0.00 in0.0 mm
07:59 AM 37.4°F3.0°C 36.1°F2.3°C 95% 12.0 mph SE19.3 kmh SE 16.0 mph25.7 kmh 29.76 in1007.8 mb 0.00 in0.0 mm 0.00 in0.0 mm 0.00 in0.0 mm
08:04 AM 37.4°F3.0°C 36.1°F2.3°C 95% 12.0 mph SE19.3 kmh SE 17.0 mph27.4 kmh 29.76 in1007.8 mb 0.00 in0.0 mm 0.00 in0.0 mm 0.00 in0.0 mm
08:09 AM 37.6°F3.1°C 36.3°F2.4°C 95% 7.0 mph SSE11.3 kmh SSE 9.0 mph14.5 kmh 29.76 in1007.8 mb 0.00 in0.0 mm 0.00 in0.0 mm 0.00 in0.0 mm
08:14 AM 37.6°F3.1°C 36.3°F2.4°C 95% 9.0 mph S14.5 kmh S 14.0 mph22.5 kmh 29.76 in1007.8 mb 0.00 in0.0 mm 0.00 in0.0 mm 0.00 in0.0 mm
08:19 AM 37.4°F3.0°C 36.1°F2.3°C 95% 11.0 mph S17.7 kmh S 16.0 mph25.7 kmh 29.76 in1007.8 mb 0.00 in0.0 mm 0.00 in0.0 mm 0.00 in0.0 mm
08:24 AM 37.6°F3.1°C 36.3°F2.4°C 95% 10.0 mph SSE16.1 kmh SSE 15.0 mph24.1 kmh 29.76 in1007.8 mb 0.00 in0.0 mm 0.00 in0.0 mm 0.00 in0.0 mm
08:29 AM 37.6°F3.1°C 36.3°F2.4°C 95% 11.0 mph S17.7 kmh S 16.0 mph25.7 kmh 29.75 in1007.5 mb 0.00 in0.0 mm 0.00 in0.0 mm 0.00 in0.0 mm
08:34 AM 37.8°F3.2°C 36.5°F2.5°C 95% 13.0 mph SSW20.9 kmh SSW 18.0 mph29.0 kmh 29.75 in1007.5 mb 0.00 in0.0 mm 0.00 in0.0 mm 0.00 in0.0 mm
08:39 AM 37.9°F3.3°C 36.4°F2.4°C 94% 10.0 mph SE16.1 kmh SE 14.0 mph22.5 kmh 29.75 in1007.5 mb 0.00 in0.0 mm 0.00 in0.0 mm 0.00 in0.0 mm
08:44 AM 38.1°F3.4°C 36.6°F2.6°C 94% 8.0 mph SSE12.9 kmh SSE 11.0 mph17.7 kmh 29.75 in1007.5 mb 0.00 in0.0 mm 0.00 in0.0 mm 0.00 in0.0 mm
08:49 AM 38.3°F3.5°C 36.7°F2.6°C 94% 10.0 mph SSE16.1 kmh SSE 15.0 mph24.1 kmh 29.75 in1007.5 mb 0.00 in0.0 mm 0.00 in0.0 mm 0.00 in0.0 mm
08:54 AM 38.5°F3.6°C 36.9°F2.7°C 94% 11.0 mph S17.7 kmh S 14.0 mph22.5 kmh 29.74 in1007.1 mb 0.00 in0.0 mm 0.00 in0.0 mm 0.00 in0.0 mm
08:59 AM 38.5°F3.6°C 36.9°F2.7°C 94% 11.0 mph SE17.7 kmh SE 15.0 mph24.1 kmh 29.73 in1006.8 mb 0.00 in0.0 mm 0.00 in0.0 mm 0.00 in0.0 mm
09:04 AM 38.7°F3.7°C 37.1°F2.8°C 94% 10.0 mph SSE16.1 kmh SSE 17.0 mph27.4 kmh 29.72 in1006.4 mb 0.00 in0.0 mm 0.00 in0.0 mm 0.00 in0.0 mm
09:09 AM 38.8°F3.8°C 37.3°F2.9°C 94% 11.0 mph S17.7 kmh S 18.0 mph29.0 kmh 29.72 in1006.4 mb 0.00 in0.0 mm 0.00 in0.0 mm 0.00 in0.0 mm
09:14 AM 39.0°F3.9°C 37.2°F2.9°C 93% 9.0 mph SE14.5 kmh SE 13.0 mph20.9 kmh 29.72 in1006.4 mb 0.00 in0.0 mm 0.00 in0.0 mm 0.00 in0.0 mm
09:19 AM 39.0°F3.9°C 37.4°F3.0°C 94% 10.0 mph SSE16.1 kmh SSE 18.0 mph29.0 kmh 29.72 in1006.4 mb 0.00 in0.0 mm 0.00 in0.0 mm 0.00 in0.0 mm
09:24 AM 39.2°F4.0°C 37.4°F3.0°C 93% 9.0 mph SSE14.5 kmh SSE 11.0 mph17.7 kmh 29.71 in1006.1 mb 0.00 in0.0 mm 0.00 in0.0 mm 0.00 in0.0 mm
09:29 AM 39.4°F4.1°C 37.5°F3.1°C 93% 11.0 mph SE17.7 kmh SE 19.0 mph30.6 kmh 29.70 in1005.8 mb 0.00 in0.0 mm 0.00 in0.0 mm 0.00 in0.0 mm
09:34 AM 39.6°F4.2°C 37.7°F3.2°C 93% 10.0 mph S16.1 kmh S 13.0 mph20.9 kmh 29.70 in1005.8 mb 0.00 in0.0 mm 0.00 in0.0 mm 0.00 in0.0 mm
09:39 AM 39.6°F4.2°C 37.7°F3.2°C 93% 10.0 mph SSE16.1 kmh SSE 14.0 mph22.5 kmh 29.70 in1005.8 mb 0.00 in0.0 mm 0.00 in0.0 mm 0.00 in0.0 mm
09:44 AM 39.7°F4.3°C 37.9°F3.3°C 93% 10.0 mph SE16.1 kmh SE 12.0 mph19.3 kmh 29.69 in1005.4 mb 0.00 in0.0 mm 0.00 in0.0 mm 0.00 in0.0 mm
09:49 AM 39.9°F4.4°C 38.1°F3.4°C 93% 14.0 mph SE22.5 kmh SE 20.0 mph32.2 kmh 29.69 in1005.4 mb 0.00 in0.0 mm 0.00 in0.0 mm 0.00 in0.0 mm
09:54 AM 39.9°F4.4°C 38.1°F3.4°C 93% 11.0 mph SSE17.7 kmh SSE 16.0 mph25.7 kmh 29.69 in1005.4 mb 0.00 in0.0 mm 0.00 in0.0 mm 0.00 in0.0 mm
09:59 AM 40.1°F4.5°C 38.2°F3.4°C 93% 13.0 mph S20.9 kmh S 22.0 mph35.4 kmh 29.69 in1005.4 mb 0.00 in0.0 mm 0.00 in0.0 mm 0.00 in0.0 mm
10:04 AM 40.1°F4.5°C 38.2°F3.4°C 93% 11.0 mph SE17.7 kmh SE 13.0 mph20.9 kmh 29.69 in1005.4 mb 0.00 in0.0 mm 0.00 in0.0 mm 0.00 in0.0 mm
10:09 AM 40.3°F4.6°C 38.4°F3.6°C 93% 11.0 mph SSE17.7 kmh SSE 23.0 mph37.0 kmh 29.68 in1005.1 mb 0.00 in0.0 mm 0.00 in0.0 mm 0.00 in0.0 mm
10:14 AM 40.3°F4.6°C 38.4°F3.6°C 93% 11.0 mph SSE17.7 kmh SSE 17.0 mph27.4 kmh 29.68 in1005.1 mb 0.00 in0.0 mm 0.00 in0.0 mm 0.00 in0.0 mm
10:19 AM 40.3°F4.6°C 38.4°F3.6°C 93% 10.0 mph SSE16.1 kmh SSE 17.0 mph27.4 kmh 29.68 in1005.1 mb 0.00 in0.0 mm 0.00 in0.0 mm 0.00 in0.0 mm
10:24 AM 40.5°F4.7°C 38.6°F3.7°C 93% 11.0 mph S17.7 kmh S 15.0 mph24.1 kmh 29.67 in1004.7 mb 0.00 in0.0 mm 0.00 in0.0 mm 0.00 in0.0 mm
10:29 AM 40.5°F4.7°C 38.6°F3.7°C 93% 13.0 mph ESE20.9 kmh ESE 19.0 mph30.6 kmh 29.67 in1004.7 mb 0.00 in0.0 mm 0.00 in0.0 mm 0.01 in0.3 mm
10:34 AM 40.5°F4.7°C 38.9°F3.8°C 94% 12.0 mph S19.3 kmh S 20.0 mph32.2 kmh 29.67 in1004.7 mb 0.01 in0.3 mm 0.10 in2.5 mm 0.02 in0.5 mm
10:39 AM 40.6°F4.8°C 39.1°F3.9°C 94% 13.0 mph SE20.9 kmh SE 18.0 mph29.0 kmh 29.66 in1004.4 mb 0.01 in0.3 mm 0.00 in0.0 mm 0.02 in0.5 mm
10:44 AM 40.6°F4.8°C 39.1°F3.9°C 94% 11.0 mph SE17.7 kmh SE 13.0 mph20.9 kmh 29.65 in1004.1 mb 0.00 in0.0 mm 0.00 in0.0 mm 0.02 in0.5 mm
10:49 AM 40.6°F4.8°C 39.1°F3.9°C 94% 12.0 mph SSE19.3 kmh SSE 18.0 mph29.0 kmh 29.65 in1004.1 mb 0.00 in0.0 mm 0.00 in0.0 mm 0.02 in0.5 mm
10:54 AM 40.8°F4.9°C 39.5°F4.2°C 95% 10.0 mph SE16.1 kmh SE 15.0 mph24.1 kmh 29.64 in1003.7 mb 0.00 in0.0 mm 0.00 in0.0 mm 0.03 in0.8 mm
10:59 AM 41.0°F5.0°C 39.4°F4.1°C 94% 11.0 mph SSE17.7 kmh SSE 16.0 mph25.7 kmh 29.64 in1003.7 mb 0.00 in0.0 mm 0.00 in0.0 mm 0.04 in1.0 mm
11:04 AM 41.2°F5.1°C 39.6°F4.2°C 94% 10.0 mph S16.1 kmh S 16.0 mph25.7 kmh 29.64 in1003.7 mb 0.01 in0.3 mm 0.01 in0.3 mm 0.05 in1.3 mm
11:09 AM 41.2°F5.1°C 39.6°F4.2°C 94% 10.0 mph SE16.1 kmh SE 15.0 mph24.1 kmh 29.63 in1003.4 mb 0.00 in0.0 mm 0.00 in0.0 mm 0.05 in1.3 mm
11:14 AM 41.2°F5.1°C 39.9°F4.4°C 95% 10.0 mph SE16.1 kmh SE 17.0 mph27.4 kmh 29.63 in1003.4 mb 0.00 in0.0 mm 0.00 in0.0 mm 0.06 in1.5 mm
11:19 AM 41.4°F5.2°C 40.0°F4.4°C 95% 12.0 mph SSE19.3 kmh SSE 20.0 mph32.2 kmh 29.62 in1003.0 mb 0.00 in0.0 mm 0.00 in0.0 mm 0.06 in1.5 mm
11:24 AM 41.4°F5.2°C 40.0°F4.4°C 95% 13.0 mph SE20.9 kmh SE 19.0 mph30.6 kmh 29.62 in1003.0 mb 0.00 in0.0 mm 0.00 in0.0 mm 0.06 in1.5 mm
11:29 AM 41.4°F5.2°C 40.0°F4.4°C 95% 9.0 mph S14.5 kmh S 12.0 mph19.3 kmh 29.62 in1003.0 mb 0.00 in0.0 mm 0.00 in0.0 mm 0.07 in1.8 mm
11:34 AM 41.4°F5.2°C 40.0°F4.4°C 95% 15.0 mph S24.1 kmh S 25.0 mph40.2 kmh 29.62 in1003.0 mb 0.01 in0.3 mm 0.10 in2.5 mm 0.09 in2.3 mm
11:39 AM 41.4°F5.2°C 40.0°F4.4°C 95% 9.0 mph SE14.5 kmh SE 12.0 mph19.3 kmh 29.61 in1002.7 mb 0.00 in0.0 mm 0.00 in0.0 mm 0.11 in2.8 mm
11:44 AM 41.4°F5.2°C 40.0°F4.4°C 95% 10.0 mph SSE16.1 kmh SSE 16.0 mph25.7 kmh 29.60 in1002.4 mb 0.01 in0.3 mm 0.10 in2.5 mm 0.13 in3.3 mm
11:49 AM 41.5°F5.3°C 40.2°F4.6°C 95% 9.0 mph SE14.5 kmh SE 12.0 mph19.3 kmh 29.59 in1002.0 mb 0.00 in0.0 mm 0.00 in0.0 mm 0.14 in3.6 mm
11:54 AM 41.5°F5.3°C 40.2°F4.6°C 95% 11.0 mph SE17.7 kmh SE 16.0 mph25.7 kmh 29.59 in1002.0 mb 0.00 in0.0 mm 0.00 in0.0 mm 0.15 in3.8 mm
11:59 AM 41.7°F5.4°C 40.4°F4.7°C 95% 10.0 mph SE16.1 kmh SE 15.0 mph24.1 kmh 29.58 in1001.7 mb 0.01 in0.3 mm 0.10 in2.5 mm 0.17 in4.3 mm
12:04 PM 41.7°F5.4°C 40.4°F4.7°C 95% 12.0 mph S19.3 kmh S 19.0 mph30.6 kmh 29.57 in1001.4 mb 0.00 in0.0 mm 0.00 in0.0 mm 0.17 in4.3 mm
12:09 PM 41.7°F5.4°C 40.4°F4.7°C 95% 11.0 mph S17.7 kmh S 21.0 mph33.8 kmh 29.56 in1001.0 mb 0.00 in0.0 mm 0.00 in0.0 mm 0.17 in4.3 mm
12:14 PM 41.9°F5.5°C 40.6°F4.8°C 95% 12.0 mph SE19.3 kmh SE 16.0 mph25.7 kmh 29.56 in1001.0 mb 0.01 in0.3 mm 0.10 in2.5 mm 0.18 in4.6 mm
12:19 PM 41.9°F5.5°C 40.6°F4.8°C 95% 12.0 mph S19.3 kmh S 17.0 mph27.4 kmh 29.56 in1001.0 mb 0.00 in0.0 mm 0.00 in0.0 mm 0.18 in4.6 mm
12:24 PM 42.1°F5.6°C 40.8°F4.9°C 95% 12.0 mph SSE19.3 kmh SSE 19.0 mph30.6 kmh 29.55 in1000.7 mb 0.01 in0.3 mm 0.10 in2.5 mm 0.19 in4.8 mm
12:29 PM 42.1°F5.6°C 40.8°F4.9°C 95% 12.0 mph S19.3 kmh S 20.0 mph32.2 kmh 29.54 in1000.3 mb 0.01 in0.3 mm 0.00 in0.0 mm 0.20 in5.1 mm
12:34 PM 42.1°F5.6°C 40.8°F4.9°C 95% 15.0 mph SE24.1 kmh SE 19.0 mph30.6 kmh 29.54 in1000.3 mb 0.00 in0.0 mm 0.00 in0.0 mm 0.20 in5.1 mm
12:39 PM 42.1°F5.6°C 40.8°F4.9°C 95% 14.0 mph SE22.5 kmh SE 22.0 mph35.4 kmh 29.53 in1000.0 mb 0.00 in0.0 mm 0.00 in0.0 mm 0.21 in5.3 mm
12:44 PM 42.1°F5.6°C 40.8°F4.9°C 95% 12.0 mph SSE19.3 kmh SSE 18.0 mph29.0 kmh 29.52 in999.7 mb 0.00 in0.0 mm 0.00 in0.0 mm 0.21 in5.3 mm
12:49 PM 42.1°F5.6°C 40.8°F4.9°C 95% 14.0 mph ESE22.5 kmh ESE 19.0 mph30.6 kmh 29.52 in999.7 mb 0.00 in0.0 mm 0.00 in0.0 mm 0.22 in5.6 mm
12:54 PM 42.1°F5.6°C 40.8°F4.9°C 95% 11.0 mph SSE17.7 kmh SSE 19.0 mph30.6 kmh 29.52 in999.7 mb 0.01 in0.3 mm 0.10 in2.5 mm 0.23 in5.8 mm
12:59 PM 42.1°F5.6°C 40.8°F4.9°C 95% 15.0 mph S24.1 kmh S 21.0 mph33.8 kmh 29.50 in999.0 mb 0.00 in0.0 mm 0.00 in0.0 mm 0.23 in5.8 mm
01:04 PM 42.1°F5.6°C 40.8°F4.9°C 95% 12.0 mph ESE19.3 kmh ESE 16.0 mph25.7 kmh 29.50 in999.0 mb 0.00 in0.0 mm 0.00 in0.0 mm 0.24 in6.1 mm
01:09 PM 41.9°F5.5°C 40.6°F4.8°C 95% 10.0 mph SE16.1 kmh SE 15.0 mph24.1 kmh 29.49 in998.6 mb 0.00 in0.0 mm 0.00 in0.0 mm 0.24 in6.1 mm
01:14 PM 41.9°F5.5°C 40.6°F4.8°C 95% 15.0 mph SE24.1 kmh SE 23.0 mph37.0 kmh 29.49 in998.6 mb 0.00 in0.0 mm 0.00 in0.0 mm 0.24 in6.1 mm
01:19 PM 41.7°F5.4°C 40.4°F4.7°C 95% 12.0 mph S19.3 kmh S 21.0 mph33.8 kmh 29.48 in998.3 mb 0.00 in0.0 mm 0.00 in0.0 mm 0.25 in6.4 mm
01:24 PM 41.7°F5.4°C 40.4°F4.7°C 95% 14.0 mph SE22.5 kmh SE 17.0 mph27.4 kmh 29.48 in998.3 mb 0.00 in0.0 mm 0.00 in0.0 mm 0.26 in6.6 mm
01:29 PM 41.9°F5.5°C 40.6°F4.8°C 95% 9.0 mph SSE14.5 kmh SSE 16.0 mph25.7 kmh 29.47 in998.0 mb 0.00 in0.0 mm 0.00 in0.0 mm 0.26 in6.6 mm
01:34 PM 41.9°F5.5°C 40.6°F4.8°C 95% 8.0 mph SE12.9 kmh SE 12.0 mph19.3 kmh 29.47 in998.0 mb 0.00 in0.0 mm 0.00 in0.0 mm 0.26 in6.6 mm
01:39 PM 42.1°F5.6°C 40.8°F4.9°C 95% 15.0 mph SE24.1 kmh SE 19.0 mph30.6 kmh 29.46 in997.6 mb 0.00 in0.0 mm 0.00 in0.0 mm 0.26 in6.6 mm
01:44 PM 42.1°F5.6°C 40.8°F4.9°C 95% 12.0 mph SSW19.3 kmh SSW 21.0 mph33.8 kmh 29.46 in997.6 mb 0.00 in0.0 mm 0.00 in0.0 mm 0.26 in6.6 mm
01:49 PM 42.1°F5.6°C 40.8°F4.9°C 95% 13.0 mph S20.9 kmh S 18.0 mph29.0 kmh 29.45 in997.3 mb 0.00 in0.0 mm 0.00 in0.0 mm 0.26 in6.6 mm
01:54 PM 42.3°F5.7°C 40.9°F4.9°C 95% 13.0 mph SE20.9 kmh SE 21.0 mph33.8 kmh 29.44 in997.0 mb 0.00 in0.0 mm 0.00 in0.0 mm 0.27 in6.9 mm
01:59 PM 42.3°F5.7°C 40.9°F4.9°C 95% 12.0 mph SSE19.3 kmh SSE 22.0 mph35.4 kmh 29.44 in997.0 mb 0.00 in0.0 mm 0.00 in0.0 mm 0.27 in6.9 mm
02:04 PM 42.3°F5.7°C 40.9°F4.9°C 95% 14.0 mph S22.5 kmh S 29.0 mph46.7 kmh 29.43 in996.6 mb 0.00 in0.0 mm 0.00 in0.0 mm 0.27 in6.9 mm
02:09 PM 42.3°F5.7°C 40.9°F4.9°C 95% 12.0 mph SE19.3 kmh SE 17.0 mph27.4 kmh 29.43 in996.6 mb 0.00 in0.0 mm 0.00 in0.0 mm 0.27 in6.9 mm
02:14 PM 42.4°F5.8°C 41.1°F5.1°C 95% 13.0 mph SSE20.9 kmh SSE 21.0 mph33.8 kmh 29.42 in996.3 mb 0.00 in0.0 mm 0.00 in0.0 mm 0.27 in6.9 mm
02:19 PM 42.4°F5.8°C 41.1°F5.1°C 95% 9.0 mph SSE14.5 kmh SSE 17.0 mph27.4 kmh 29.42 in996.3 mb 0.00 in0.0 mm 0.00 in0.0 mm 0.27 in6.9 mm
02:24 PM 42.6°F5.9°C 41.3°F5.2°C 95% 13.0 mph S20.9 kmh S 17.0 mph27.4 kmh 29.41 in995.9 mb 0.00 in0.0 mm 0.00 in0.0 mm 0.27 in6.9 mm
02:29 PM 42.6°F5.9°C 41.3°F5.2°C 95% 11.0 mph SSW17.7 kmh SSW 18.0 mph29.0 kmh 29.40 in995.6 mb 0.00 in0.0 mm 0.00 in0.0 mm 0.28 in7.1 mm
02:34 PM 42.6°F5.9°C 41.3°F5.2°C 95% 13.0 mph S20.9 kmh S 23.0 mph37.0 kmh 29.40 in995.6 mb 0.00 in0.0 mm 0.00 in0.0 mm 0.28 in7.1 mm
02:39 PM 42.6°F5.9°C 41.3°F5.2°C 95% 11.0 mph S17.7 kmh S 17.0 mph27.4 kmh 29.40 in995.6 mb 0.01 in0.3 mm 0.10 in2.5 mm 0.28 in7.1 mm
02:44 PM 42.6°F5.9°C 41.3°F5.2°C 95% 15.0 mph S24.1 kmh S 28.0 mph45.1 kmh 29.39 in995.3 mb 0.00 in0.0 mm 0.00 in0.0 mm 0.28 in7.1 mm
02:49 PM 42.6°F5.9°C 41.3°F5.2°C 95% 14.0 mph SE22.5 kmh SE 19.0 mph30.6 kmh 29.39 in995.3 mb 0.00 in0.0 mm 0.00 in0.0 mm 0.28 in7.1 mm
02:54 PM 42.6°F5.9°C 41.3°F5.2°C 95% 11.0 mph SE17.7 kmh SE 15.0 mph24.1 kmh 29.38 in994.9 mb 0.00 in0.0 mm 0.00 in0.0 mm 0.29 in7.4 mm
02:59 PM 42.8°F6.0°C 41.5°F5.3°C 95% 14.0 mph S22.5 kmh S 24.0 mph38.6 kmh 29.37 in994.6 mb 0.00 in0.0 mm 0.00 in0.0 mm 0.29 in7.4 mm
03:04 PM 42.8°F6.0°C 41.5°F5.3°C 95% 15.0 mph SSE24.1 kmh SSE 29.0 mph46.7 kmh 29.37 in994.6 mb 0.00 in0.0 mm 0.00 in0.0 mm 0.29 in7.4 mm
03:09 PM 43.0°F6.1°C 41.6°F5.3°C 95% 13.0 mph SE20.9 kmh SE 18.0 mph29.0 kmh 29.37 in994.6 mb 0.00 in0.0 mm 0.00 in0.0 mm 0.30 in7.6 mm
03:14 PM 43.0°F6.1°C 41.6°F5.3°C 95% 9.0 mph SSE14.5 kmh SSE 16.0 mph25.7 kmh 29.36 in994.2 mb 0.01 in0.3 mm 0.10 in2.5 mm 0.31 in7.9 mm
03:19 PM 43.0°F6.1°C 41.6°F5.3°C 95% 14.0 mph SSE22.5 kmh SSE 20.0 mph32.2 kmh 29.36 in994.2 mb 0.00 in0.0 mm 0.00 in0.0 mm 0.31 in7.9 mm
03:24 PM 43.0°F6.1°C 41.6°F5.3°C 95% 15.0 mph SE24.1 kmh SE 21.0 mph33.8 kmh 29.36 in994.2 mb 0.00 in0.0 mm 0.00 in0.0 mm 0.32 in8.1 mm
03:29 PM 43.0°F6.1°C 41.6°F5.3°C 95% 11.0 mph SSE17.7 kmh SSE 16.0 mph25.7 kmh 29.35 in993.9 mb 0.00 in0.0 mm 0.00 in0.0 mm 0.32 in8.1 mm
03:34 PM 43.2°F6.2°C 41.8°F5.4°C 95% 15.0 mph S24.1 kmh S 27.0 mph43.5 kmh 29.35 in993.9 mb 0.00 in0.0 mm 0.00 in0.0 mm 0.33 in8.4 mm
03:39 PM 43.2°F6.2°C 41.8°F5.4°C 95% 15.0 mph SE24.1 kmh SE 21.0 mph33.8 kmh 29.34 in993.6 mb 0.00 in0.0 mm 0.00 in0.0 mm 0.34 in8.6 mm
03:44 PM 43.0°F6.1°C 41.6°F5.3°C 95% 9.0 mph SE14.5 kmh SE 11.0 mph17.7 kmh 29.34 in993.6 mb 0.00 in0.0 mm 0.00 in0.0 mm 0.35 in8.9 mm
03:49 PM 43.0°F6.1°C 41.6°F5.3°C 95% 12.0 mph S19.3 kmh S 22.0 mph35.4 kmh 29.33 in993.2 mb 0.00 in0.0 mm 0.00 in0.0 mm 0.35 in8.9 mm
03:54 PM 43.0°F6.1°C 41.6°F5.3°C 95% 13.0 mph SSE20.9 kmh SSE 20.0 mph32.2 kmh 29.33 in993.2 mb 0.00 in0.0 mm 0.00 in0.0 mm 0.36 in9.1 mm
03:59 PM 43.2°F6.2°C 41.8°F5.4°C 95% 15.0 mph SE24.1 kmh SE 20.0 mph32.2 kmh 29.32 in992.9 mb 0.01 in0.3 mm 0.10 in2.5 mm 0.38 in9.7 mm
04:04 PM 43.2°F6.2°C 41.8°F5.4°C 95% 14.0 mph SSW22.5 kmh SSW 22.0 mph35.4 kmh 29.32 in992.9 mb 0.00 in0.0 mm 0.00 in0.0 mm 0.39 in9.9 mm
04:09 PM 43.2°F6.2°C 41.8°F5.4°C 95% 11.0 mph SE17.7 kmh SE 16.0 mph25.7 kmh 29.31 in992.6 mb 0.01 in0.3 mm 0.10 in2.5 mm 0.39 in9.9 mm
04:14 PM 43.2°F6.2°C 41.8°F5.4°C 95% 13.0 mph S20.9 kmh S 24.0 mph38.6 kmh 29.31 in992.6 mb 0.00 in0.0 mm 0.00 in0.0 mm 0.40 in10.2 mm
04:19 PM 43.2°F6.2°C 41.8°F5.4°C 95% 15.0 mph S24.1 kmh S 20.0 mph32.2 kmh 29.30 in992.2 mb 0.00 in0.0 mm 0.00 in0.0 mm 0.41 in10.4 mm
04:24 PM 43.2°F6.2°C 41.6°F5.3°C 94% 13.0 mph S20.9 kmh S 19.0 mph30.6 kmh 29.30 in992.2 mb 0.00 in0.0 mm 0.00 in0.0 mm 0.42 in10.7 mm
04:29 PM 43.2°F6.2°C 41.8°F5.4°C 95% 12.0 mph SE19.3 kmh SE 16.0 mph25.7 kmh 29.29 in991.9 mb 0.01 in0.3 mm 0.10 in2.5 mm 0.43 in10.9 mm
04:34 PM 43.2°F6.2°C 41.6°F5.3°C 94% 12.0 mph SE19.3 kmh SE 22.0 mph35.4 kmh 29.28 in991.5 mb 0.01 in0.3 mm 0.00 in0.0 mm 0.44 in11.2 mm
04:39 PM 43.2°F6.2°C 41.6°F5.3°C 94% 12.0 mph SE19.3 kmh SE 18.0 mph29.0 kmh 29.28 in991.5 mb 0.01 in0.3 mm 0.00 in0.0 mm 0.46 in11.7 mm
04:44 PM 43.2°F6.2°C 41.8°F5.4°C 95% 15.0 mph SSE24.1 kmh SSE 21.0 mph33.8 kmh 29.28 in991.5 mb 0.00 in0.0 mm 0.00 in0.0 mm 0.47 in11.9 mm
04:49 PM 43.0°F6.1°C 41.6°F5.3°C 95% 14.0 mph SSE22.5 kmh SSE 24.0 mph38.6 kmh 29.27 in991.2 mb 0.00 in0.0 mm 0.00 in0.0 mm 0.48 in12.2 mm
04:54 PM 43.0°F6.1°C 41.6°F5.3°C 95% 12.0 mph SE19.3 kmh SE 17.0 mph27.4 kmh 29.27 in991.2 mb 0.00 in0.0 mm 0.00 in0.0 mm 0.49 in12.4 mm
04:59 PM 43.0°F6.1°C 41.6°F5.3°C 95% 15.0 mph SE24.1 kmh SE 25.0 mph40.2 kmh 29.26 in990.9 mb 0.00 in0.0 mm 0.00 in0.0 mm 0.50 in12.7 mm
05:04 PM 43.0°F6.1°C 41.6°F5.3°C 95% 17.0 mph SSE27.4 kmh SSE 24.0 mph38.6 kmh 29.26 in990.9 mb 0.00 in0.0 mm 0.00 in0.0 mm 0.50 in12.7 mm
05:09 PM 43.0°F6.1°C 41.6°F5.3°C 95% 15.0 mph SE24.1 kmh SE 21.0 mph33.8 kmh 29.26 in990.9 mb 0.00 in0.0 mm 0.00 in0.0 mm 0.51 in13.0 mm
05:14 PM 43.0°F6.1°C 41.6°F5.3°C 95% 13.0 mph SSE20.9 kmh SSE 19.0 mph30.6 kmh 29.26 in990.9 mb 0.01 in0.3 mm 0.10 in2.5 mm 0.52 in13.2 mm
05:19 PM 43.0°F6.1°C 41.6°F5.3°C 95% 12.0 mph SE19.3 kmh SE 18.0 mph29.0 kmh 29.26 in990.9 mb 0.00 in0.0 mm 0.00 in0.0 mm 0.52 in13.2 mm
05:24 PM 43.2°F6.2°C 41.8°F5.4°C 95% 10.0 mph SE16.1 kmh SE 15.0 mph24.1 kmh 29.25 in990.5 mb 0.00 in0.0 mm 0.00 in0.0 mm 0.53 in13.5 mm
05:29 PM 43.2°F6.2°C 41.8°F5.4°C 95% 11.0 mph SE17.7 kmh SE 17.0 mph27.4 kmh 29.25 in990.5 mb 0.00 in0.0 mm 0.00 in0.0 mm 0.53 in13.5 mm
05:34 PM 43.2°F6.2°C 41.8°F5.4°C 95% 11.0 mph SE17.7 kmh SE 18.0 mph29.0 kmh 29.24 in990.2 mb 0.00 in0.0 mm 0.00 in0.0 mm 0.54 in13.7 mm
05:39 PM 43.2°F6.2°C 41.8°F5.4°C 95% 11.0 mph SSW17.7 kmh SSW 22.0 mph35.4 kmh 29.24 in990.2 mb 0.00 in0.0 mm 0.00 in0.0 mm 0.54 in13.7 mm
05:44 PM 43.2°F6.2°C 41.8°F5.4°C 95% 10.0 mph S16.1 kmh S 17.0 mph27.4 kmh 29.23 in989.8 mb 0.00 in0.0 mm 0.00 in0.0 mm 0.54 in13.7 mm
05:49 PM 43.3°F6.3°C 42.0°F5.6°C 95% 13.0 mph S20.9 kmh S 21.0 mph33.8 kmh 29.24 in990.2 mb 0.00 in0.0 mm 0.00 in0.0 mm 0.55 in14.0 mm
05:54 PM 43.3°F6.3°C 42.3°F5.7°C 96% 11.0 mph S17.7 kmh S 17.0 mph27.4 kmh 29.24 in990.2 mb 0.00 in0.0 mm 0.00 in0.0 mm 0.55 in14.0 mm
05:59 PM 43.5°F6.4°C 42.5°F5.8°C 96% 16.0 mph S25.7 kmh S 22.0 mph35.4 kmh 29.23 in989.8 mb 0.00 in0.0 mm 0.00 in0.0 mm 0.56 in14.2 mm
06:04 PM 43.9°F6.6°C 42.5°F5.8°C 95% 14.0 mph SSW22.5 kmh SSW 18.0 mph29.0 kmh 29.23 in989.8 mb 0.01 in0.3 mm 0.01 in0.3 mm 0.58 in14.7 mm
06:09 PM 44.1°F6.7°C 42.7°F5.9°C 95% 10.0 mph S16.1 kmh S 17.0 mph27.4 kmh 29.23 in989.8 mb 0.00 in0.0 mm 0.00 in0.0 mm 0.58 in14.7 mm
06:14 PM 44.1°F6.7°C 42.7°F5.9°C 95% 10.0 mph S16.1 kmh S 15.0 mph24.1 kmh 29.23 in989.8 mb 0.00 in0.0 mm 0.00 in0.0 mm 0.58 in14.7 mm
06:19 PM 44.4°F6.9°C 43.1°F6.2°C 95% 13.0 mph SSW20.9 kmh SSW 20.0 mph32.2 kmh 29.23 in989.8 mb 0.00 in0.0 mm 0.00 in0.0 mm 0.58 in14.7 mm
06:24 PM 44.4°F6.9°C 43.1°F6.2°C 95% 11.0 mph S17.7 kmh S 20.0 mph32.2 kmh 29.22 in989.5 mb 0.00 in0.0 mm 0.00 in0.0 mm 0.58 in14.7 mm
06:29 PM 44.8°F7.1°C 43.4°F6.3°C 95% 12.0 mph SSW19.3 kmh SSW 18.0 mph29.0 kmh 29.22 in989.5 mb 0.00 in0.0 mm 0.00 in0.0 mm 0.59 in15.0 mm
06:34 PM 45.0°F7.2°C 43.6°F6.4°C 95% 14.0 mph S22.5 kmh S 24.0 mph38.6 kmh 29.22 in989.5 mb 0.00 in0.0 mm 0.00 in0.0 mm 0.59 in15.0 mm
06:39 PM 45.3°F7.4°C 44.0°F6.7°C 95% 11.0 mph SSW17.7 kmh SSW 18.0 mph29.0 kmh 29.22 in989.5 mb 0.00 in0.0 mm 0.00 in0.0 mm 0.59 in15.0 mm
06:44 PM 45.9°F7.7°C 44.5°F6.9°C 95% 15.0 mph SW24.1 kmh SW 25.0 mph40.2 kmh 29.21 in989.2 mb 0.00 in0.0 mm 0.00 in0.0 mm 0.59 in15.0 mm
06:49 PM 46.0°F7.8°C 44.7°F7.1°C 95% 11.0 mph SSW17.7 kmh SSW 18.0 mph29.0 kmh 29.21 in989.2 mb 0.00 in0.0 mm 0.00 in0.0 mm 0.59 in15.0 mm
06:54 PM 46.2°F7.9°C 44.6°F7.0°C 94% 13.0 mph SSW20.9 kmh SSW 26.0 mph41.8 kmh 29.21 in989.2 mb 0.00 in0.0 mm 0.00 in0.0 mm 0.59 in15.0 mm
06:59 PM 46.0°F7.8°C 44.4°F6.9°C 94% 13.0 mph SSW20.9 kmh SSW 23.0 mph37.0 kmh 29.21 in989.2 mb 0.00 in0.0 mm 0.00 in0.0 mm 0.59 in15.0 mm
07:04 PM 46.0°F7.8°C 44.7°F7.1°C 95% 12.0 mph S19.3 kmh S 19.0 mph30.6 kmh 29.21 in989.2 mb 0.00 in0.0 mm 0.00 in0.0 mm 0.59 in15.0 mm
07:09 PM 46.2°F7.9°C 44.9°F7.2°C 95% 11.0 mph WSW17.7 kmh WSW 18.0 mph29.0 kmh 29.21 in989.2 mb 0.00 in0.0 mm 0.00 in0.0 mm 0.59 in15.0 mm
07:14 PM 46.2°F7.9°C 44.6°F7.0°C 94% 9.0 mph SSW14.5 kmh SSW 13.0 mph20.9 kmh 29.21 in989.2 mb 0.00 in0.0 mm 0.00 in0.0 mm 0.59 in15.0 mm
07:19 PM 46.2°F7.9°C 44.9°F7.2°C 95% 12.0 mph SW19.3 kmh SW 18.0 mph29.0 kmh 29.21 in989.2 mb 0.00 in0.0 mm 0.00 in0.0 mm 0.61 in15.5 mm
07:24 PM 46.2°F7.9°C 44.9°F7.2°C 95% 12.0 mph SW19.3 kmh SW 18.0 mph29.0 kmh 29.22 in989.5 mb 0.00 in0.0 mm 0.00 in0.0 mm 0.61 in15.5 mm
07:29 PM 46.2°F7.9°C 44.9°F7.2°C 95% 9.0 mph SW14.5 kmh SW 16.0 mph25.7 kmh 29.22 in989.5 mb 0.00 in0.0 mm 0.00 in0.0 mm 0.61 in15.5 mm
07:34 PM 46.6°F8.1°C 45.2°F7.3°C 95% 9.0 mph WSW14.5 kmh WSW 14.0 mph22.5 kmh 29.22 in989.5 mb 0.00 in0.0 mm 0.00 in0.0 mm 0.61 in15.5 mm
07:39 PM 46.8°F8.2°C 45.4°F7.4°C 95% 14.0 mph W22.5 kmh W 21.0 mph33.8 kmh 29.23 in989.8 mb 0.00 in0.0 mm 0.00 in0.0 mm 0.61 in15.5 mm
07:44 PM 46.8°F8.2°C 45.1°F7.3°C 94% 16.0 mph W25.7 kmh W 27.0 mph43.5 kmh 29.23 in989.8 mb 0.00 in0.0 mm 0.00 in0.0 mm 0.61 in15.5 mm
07:49 PM 46.4°F8.0°C 44.8°F7.1°C 94% 14.0 mph W22.5 kmh W 21.0 mph33.8 kmh 29.23 in989.8 mb 0.00 in0.0 mm 0.00 in0.0 mm 0.62 in15.7 mm
07:54 PM 46.2°F7.9°C 44.6°F7.0°C 94% 11.0 mph W17.7 kmh W 15.0 mph24.1 kmh 29.23 in989.8 mb 0.00 in0.0 mm 0.00 in0.0 mm 0.62 in15.7 mm
07:59 PM 46.0°F7.8°C 44.4°F6.9°C 94% 11.0 mph W17.7 kmh W 17.0 mph27.4 kmh 29.24 in990.2 mb 0.00 in0.0 mm 0.00 in0.0 mm 0.62 in15.7 mm
08:04 PM 46.0°F7.8°C 44.4°F6.9°C 94% 13.0 mph WSW20.9 kmh WSW 17.0 mph27.4 kmh 29.24 in990.2 mb 0.00 in0.0 mm 0.00 in0.0 mm 0.62 in15.7 mm
08:09 PM 46.0°F7.8°C 44.4°F6.9°C 94% 11.0 mph WSW17.7 kmh WSW 15.0 mph24.1 kmh 29.24 in990.2 mb 0.00 in0.0 mm 0.00 in0.0 mm 0.62 in15.7 mm
08:14 PM 46.0°F7.8°C 44.1°F6.7°C 93% 11.0 mph WSW17.7 kmh WSW 18.0 mph29.0 kmh 29.24 in990.2 mb 0.00 in0.0 mm 0.00 in0.0 mm 0.62 in15.7 mm
08:18 PM 46.0°F7.8°C 44.1°F6.7°C 93% 10.0 mph W16.1 kmh W 16.0 mph25.7 kmh 29.24 in990.2 mb 0.00 in0.0 mm 0.00 in0.0 mm 0.62 in15.7 mm
08:24 PM 46.0°F7.8°C 44.1°F6.7°C 93% 9.0 mph WSW14.5 kmh WSW 14.0 mph22.5 kmh 29.24 in990.2 mb 0.00 in0.0 mm 0.00 in0.0 mm 0.62 in15.7 mm
08:29 PM 46.2°F7.9°C 44.3°F6.8°C 93% 14.0 mph W22.5 kmh W 18.0 mph29.0 kmh 29.24 in990.2 mb 0.00 in0.0 mm 0.00 in0.0 mm 0.62 in15.7 mm
08:34 PM 46.2°F7.9°C 44.3°F6.8°C 93% 11.0 mph WSW17.7 kmh WSW 16.0 mph25.7 kmh 29.25 in990.5 mb 0.00 in0.0 mm 0.00 in0.0 mm 0.62 in15.7 mm
08:39 PM 46.2°F7.9°C 44.0°F6.7°C 92% 15.0 mph WSW24.1 kmh WSW 21.0 mph33.8 kmh 29.25 in990.5 mb 0.00 in0.0 mm 0.00 in0.0 mm 0.62 in15.7 mm
08:44 PM 46.2°F7.9°C 44.0°F6.7°C 92% 14.0 mph WSW22.5 kmh WSW 19.0 mph30.6 kmh 29.25 in990.5 mb 0.00 in0.0 mm 0.00 in0.0 mm 0.62 in15.7 mm
08:54 PM 46.2°F7.9°C 43.7°F6.5°C 91% 15.0 mph W24.1 kmh W 19.0 mph30.6 kmh 29.26 in990.9 mb 0.00 in0.0 mm 0.00 in0.0 mm 0.62 in15.7 mm
08:59 PM 46.2°F7.9°C 43.7°F6.5°C 91% 14.0 mph W22.5 kmh W 18.0 mph29.0 kmh 29.26 in990.9 mb 0.00 in0.0 mm 0.00 in0.0 mm 0.62 in15.7 mm
09:04 PM 46.2°F7.9°C 43.7°F6.5°C 91% 13.0 mph W20.9 kmh W 24.0 mph38.6 kmh 29.26 in990.9 mb 0.00 in0.0 mm 0.00 in0.0 mm 0.62 in15.7 mm
09:09 PM 46.2°F7.9°C 43.7°F6.5°C 91% 12.0 mph WSW19.3 kmh WSW 18.0 mph29.0 kmh 29.26 in990.9 mb 0.00 in0.0 mm 0.00 in0.0 mm 0.62 in15.7 mm
09:14 PM 46.2°F7.9°C 43.7°F6.5°C 91% 18.0 mph W29.0 kmh W 24.0 mph38.6 kmh 29.26 in990.9 mb 0.00 in0.0 mm 0.00 in0.0 mm 0.62 in15.7 mm
09:19 PM 46.0°F7.8°C 43.6°F6.4°C 91% 15.0 mph W24.1 kmh W 21.0 mph33.8 kmh 29.27 in991.2 mb 0.00 in0.0 mm 0.00 in0.0 mm 0.62 in15.7 mm
09:24 PM 45.9°F7.7°C 43.4°F6.3°C 91% 14.0 mph W22.5 kmh W 18.0 mph29.0 kmh 29.27 in991.2 mb 0.00 in0.0 mm 0.00 in0.0 mm 0.62 in15.7 mm
09:34 PM 45.7°F7.6°C 43.2°F6.2°C 91% 10.0 mph W16.1 kmh W 14.0 mph22.5 kmh 29.27 in991.2 mb 0.00 in0.0 mm 0.00 in0.0 mm 0.62 in15.7 mm
09:39 PM 45.5°F7.5°C 43.0°F6.1°C 91% 10.0 mph WSW16.1 kmh WSW 14.0 mph22.5 kmh 29.27 in991.2 mb 0.00 in0.0 mm 0.00 in0.0 mm 0.62 in15.7 mm
09:44 PM 45.3°F7.4°C 42.9°F6.1°C 91% 13.0 mph W20.9 kmh W 18.0 mph29.0 kmh 29.27 in991.2 mb 0.00 in0.0 mm 0.00 in0.0 mm 0.62 in15.7 mm
09:49 PM 45.3°F7.4°C 42.9°F6.1°C 91% 13.0 mph W20.9 kmh W 19.0 mph30.6 kmh 29.27 in991.2 mb 0.00 in0.0 mm 0.00 in0.0 mm 0.62 in15.7 mm
09:54 PM 45.3°F7.4°C 42.9°F6.1°C 91% 9.0 mph W14.5 kmh W 13.0 mph20.9 kmh 29.27 in991.2 mb 0.00 in0.0 mm 0.00 in0.0 mm 0.62 in15.7 mm
09:59 PM 45.1°F7.3°C 42.7°F5.9°C 91% 10.0 mph W16.1 kmh W 14.0 mph22.5 kmh 29.27 in991.2 mb 0.00 in0.0 mm 0.00 in0.0 mm 0.62 in15.7 mm
10:04 PM 45.1°F7.3°C 42.7°F5.9°C 91% 10.0 mph WSW16.1 kmh WSW 14.0 mph22.5 kmh 29.27 in991.2 mb 0.00 in0.0 mm 0.00 in0.0 mm 0.62 in15.7 mm
10:09 PM 45.0°F7.2°C 42.5°F5.8°C 91% 8.0 mph W12.9 kmh W 12.0 mph19.3 kmh 29.26 in990.9 mb 0.00 in0.0 mm 0.00 in0.0 mm 0.62 in15.7 mm
10:14 PM 45.0°F7.2°C 42.5°F5.8°C 91% 15.0 mph W24.1 kmh W 20.0 mph32.2 kmh 29.26 in990.9 mb 0.00 in0.0 mm 0.00 in0.0 mm 0.62 in15.7 mm
10:19 PM 45.0°F7.2°C 42.2°F5.7°C 90% 15.0 mph W24.1 kmh W 19.0 mph30.6 kmh 29.27 in991.2 mb 0.00 in0.0 mm 0.00 in0.0 mm 0.62 in15.7 mm
10:24 PM 44.8°F7.1°C 41.7°F5.4°C 89% 10.0 mph W16.1 kmh W 15.0 mph24.1 kmh 29.27 in991.2 mb 0.00 in0.0 mm 0.00 in0.0 mm 0.62 in15.7 mm
10:29 PM 44.8°F7.1°C 41.7°F5.4°C 89% 12.0 mph WNW19.3 kmh WNW 18.0 mph29.0 kmh 29.28 in991.5 mb 0.00 in0.0 mm 0.00 in0.0 mm 0.62 in15.7 mm
10:34 PM 44.6°F7.0°C 41.3°F5.2°C 88% 13.0 mph W20.9 kmh W 19.0 mph30.6 kmh 29.27 in991.2 mb 0.00 in0.0 mm 0.00 in0.0 mm 0.62 in15.7 mm
10:39 PM 44.6°F7.0°C 41.6°F5.3°C 89% 14.0 mph W22.5 kmh W 18.0 mph29.0 kmh 29.27 in991.2 mb 0.00 in0.0 mm 0.00 in0.0 mm 0.62 in15.7 mm
10:44 PM 44.6°F7.0°C 41.6°F5.3°C 89% 14.0 mph WSW22.5 kmh WSW 18.0 mph29.0 kmh 29.27 in991.2 mb 0.00 in0.0 mm 0.00 in0.0 mm 0.62 in15.7 mm
10:49 PM 44.6°F7.0°C 41.6°F5.3°C 89% 13.0 mph W20.9 kmh W 16.0 mph25.7 kmh 29.28 in991.5 mb 0.00 in0.0 mm 0.00 in0.0 mm 0.62 in15.7 mm
10:54 PM 44.4°F6.9°C 41.1°F5.1°C 88% 12.0 mph W19.3 kmh W 15.0 mph24.1 kmh 29.28 in991.5 mb 0.00 in0.0 mm 0.00 in0.0 mm 0.62 in15.7 mm
10:59 PM 44.4°F6.9°C 41.1°F5.1°C 88% 10.0 mph W16.1 kmh W 12.0 mph19.3 kmh 29.28 in991.5 mb 0.00 in0.0 mm 0.00 in0.0 mm 0.62 in15.7 mm
11:04 PM 44.2°F6.8°C 40.9°F4.9°C 88% 10.0 mph W16.1 kmh W 14.0 mph22.5 kmh 29.28 in991.5 mb 0.00 in0.0 mm 0.00 in0.0 mm 0.62 in15.7 mm
11:09 PM 44.4°F6.9°C 41.1°F5.1°C 88% 12.0 mph WSW19.3 kmh WSW 17.0 mph27.4 kmh 29.28 in991.5 mb 0.00 in0.0 mm 0.00 in0.0 mm 0.62 in15.7 mm
11:14 PM 44.2°F6.8°C 40.9°F4.9°C 88% 10.0 mph WSW16.1 kmh WSW 13.0 mph20.9 kmh 29.28 in991.5 mb 0.00 in0.0 mm 0.00 in0.0 mm 0.62 in15.7 mm
11:19 PM 44.2°F6.8°C 40.9°F4.9°C 88% 8.0 mph WSW12.9 kmh WSW 14.0 mph22.5 kmh 29.28 in991.5 mb 0.00 in0.0 mm 0.00 in0.0 mm 0.62 in15.7 mm
11:24 PM 44.2°F6.8°C 41.2°F5.1°C 89% 11.0 mph W17.7 kmh W 19.0 mph30.6 kmh 29.29 in991.9 mb 0.00 in0.0 mm 0.00 in0.0 mm 0.62 in15.7 mm
11:29 PM 44.2°F6.8°C 41.2°F5.1°C 89% 11.0 mph W17.7 kmh W 17.0 mph27.4 kmh 29.29 in991.9 mb 0.00 in0.0 mm 0.00 in0.0 mm 0.62 in15.7 mm
11:34 PM 44.2°F6.8°C 41.2°F5.1°C 89% 13.0 mph W20.9 kmh W 17.0 mph27.4 kmh 29.29 in991.9 mb 0.00 in0.0 mm 0.00 in0.0 mm 0.62 in15.7 mm
11:39 PM 44.2°F6.8°C 41.2°F5.1°C 89% 8.0 mph WSW12.9 kmh WSW 10.0 mph16.1 kmh 29.30 in992.2 mb 0.00 in0.0 mm 0.00 in0.0 mm 0.62 in15.7 mm
11:44 PM 44.2°F6.8°C 41.2°F5.1°C 89% 12.0 mph WSW19.3 kmh WSW 18.0 mph29.0 kmh 29.30 in992.2 mb 0.00 in0.0 mm 0.00 in0.0 mm 0.62 in15.7 mm
11:49 PM 44.2°F6.8°C 40.9°F4.9°C 88% 15.0 mph WSW24.1 kmh WSW 17.0 mph27.4 kmh 29.30 in992.2 mb 0.00 in0.0 mm 0.00 in0.0 mm 0.62 in15.7 mm
11:54 PM 44.4°F6.9°C 41.1°F5.1°C 88% 12.0 mph WSW19.3 kmh WSW 17.0 mph27.4 kmh 29.30 in992.2 mb 0.00 in0.0 mm 0.00 in0.0 mm 0.62 in15.7 mm
11:59 PM 44.4°F6.9°C 41.1°F5.1°C 88% 10.0 mph W16.1 kmh W 14.0 mph22.5 kmh 29.30 in992.2 mb 0.00 in0.0 mm 0.00 in0.0 mm 0.62 in15.7 mm